sensor_id;sensor_type;location;lat;lon;timestamp;P1;durP1;ratioP1;P2;durP2;ratioP2
32250;SDS011;41295;48.518;9.206;2022-11-15T00:01:27;3.83;;;2.30;;
32250;SDS011;41295;48.518;9.206;2022-11-15T00:03:30;7.53;;;2.83;;
32250;SDS011;41295;48.518;9.206;2022-11-15T00:05:34;5.10;;;2.97;;
32250;SDS011;41295;48.518;9.206;2022-11-15T00:07:37;6.43;;;2.60;;
32250;SDS011;41295;48.518;9.206;2022-11-15T00:09:56;4.20;;;2.33;;
32250;SDS011;41295;48.518;9.206;2022-11-15T00:12:00;7.97;;;3.20;;
32250;SDS011;41295;48.518;9.206;2022-11-15T00:14:02;4.68;;;2.83;;
32250;SDS011;41295;48.518;9.206;2022-11-15T00:16:05;9.32;;;4.00;;
32250;SDS011;41295;48.518;9.206;2022-11-15T00:18:10;8.55;;;3.90;;
32250;SDS011;41295;48.518;9.206;2022-11-15T00:20:15;7.20;;;3.63;;
32250;SDS011;41295;48.518;9.206;2022-11-15T00:22:18;6.10;;;3.30;;
32250;SDS011;41295;48.518;9.206;2022-11-15T00:24:20;6.35;;;3.00;;
32250;SDS011;41295;48.518;9.206;2022-11-15T00:26:23;5.82;;;2.85;;
32250;SDS011;41295;48.518;9.206;2022-11-15T00:28:27;7.47;;;3.50;;
32250;SDS011;41295;48.518;9.206;2022-11-15T00:30:29;9.95;;;5.45;;
32250;SDS011;41295;48.518;9.206;2022-11-15T00:32:32;6.75;;;4.30;;
32250;SDS011;41295;48.518;9.206;2022-11-15T00:34:38;9.63;;;5.53;;
32250;SDS011;41295;48.518;9.206;2022-11-15T00:36:40;11.05;;;6.32;;
32250;SDS011;41295;48.518;9.206;2022-11-15T00:38:43;10.50;;;6.38;;
32250;SDS011;41295;48.518;9.206;2022-11-15T00:40:45;10.23;;;6.60;;
32250;SDS011;41295;48.518;9.206;2022-11-15T00:42:48;10.90;;;6.78;;
32250;SDS011;41295;48.518;9.206;2022-11-15T00:44:52;11.32;;;6.80;;
32250;SDS011;41295;48.518;9.206;2022-11-15T00:46:55;10.95;;;7.10;;
32250;SDS011;41295;48.518;9.206;2022-11-15T00:48:57;14.65;;;7.38;;
32250;SDS011;41295;48.518;9.206;2022-11-15T00:51:00;11.95;;;7.13;;
32250;SDS011;41295;48.518;9.206;2022-11-15T00:53:02;13.68;;;7.10;;
32250;SDS011;41295;48.518;9.206;2022-11-15T00:55:05;12.27;;;7.50;;
32250;SDS011;41295;48.518;9.206;2022-11-15T00:57:08;8.57;;;5.50;;
32250;SDS011;41295;48.518;9.206;2022-11-15T00:59:11;9.25;;;5.88;;
32250;SDS011;41295;48.518;9.206;2022-11-15T01:01:15;10.88;;;5.97;;
32250;SDS011;41295;48.518;9.206;2022-11-15T01:03:17;12.18;;;6.00;;
32250;SDS011;41295;48.518;9.206;2022-11-15T01:05:20;11.52;;;6.35;;
32250;SDS011;41295;48.518;9.206;2022-11-15T01:07:23;12.70;;;6.20;;
32250;SDS011;41295;48.518;9.206;2022-11-15T01:09:26;12.65;;;5.38;;
32250;SDS011;41295;48.518;9.206;2022-11-15T01:11:29;9.07;;;5.90;;
32250;SDS011;41295;48.518;9.206;2022-11-15T01:13:31;10.95;;;6.10;;
32250;SDS011;41295;48.518;9.206;2022-11-15T01:15:38;9.55;;;6.13;;
32250;SDS011;41295;48.518;9.206;2022-11-15T01:17:43;11.90;;;6.10;;
32250;SDS011;41295;48.518;9.206;2022-11-15T01:19:46;9.93;;;7.30;;
32250;SDS011;41295;48.518;9.206;2022-11-15T01:21:49;10.57;;;7.55;;
32250;SDS011;41295;48.518;9.206;2022-11-15T01:23:52;18.27;;;9.52;;
32250;SDS011;41295;48.518;9.206;2022-11-15T01:25:58;14.93;;;8.43;;
32250;SDS011;41295;48.518;9.206;2022-11-15T01:28:01;12.18;;;8.30;;
32250;SDS011;41295;48.518;9.206;2022-11-15T01:30:04;11.52;;;7.97;;
32250;SDS011;41295;48.518;9.206;2022-11-15T01:32:07;12.48;;;7.50;;
32250;SDS011;41295;48.518;9.206;2022-11-15T01:34:12;11.75;;;6.93;;
32250;SDS011;41295;48.518;9.206;2022-11-15T01:36:16;13.48;;;6.70;;
32250;SDS011;41295;48.518;9.206;2022-11-15T01:38:22;10.98;;;6.82;;
32250;SDS011;41295;48.518;9.206;2022-11-15T01:40:25;12.13;;;6.03;;
32250;SDS011;41295;48.518;9.206;2022-11-15T01:42:27;13.30;;;6.28;;
32250;SDS011;41295;48.518;9.206;2022-11-15T01:44:40;11.55;;;6.53;;
32250;SDS011;41295;48.518;9.206;2022-11-15T01:46:46;10.27;;;7.13;;
32250;SDS011;41295;48.518;9.206;2022-11-15T01:48:50;13.30;;;6.95;;
32250;SDS011;41295;48.518;9.206;2022-11-15T01:50:57;15.88;;;7.40;;
32250;SDS011;41295;48.518;9.206;2022-11-15T01:53:00;19.00;;;7.88;;
32250;SDS011;41295;48.518;9.206;2022-11-15T01:55:05;12.85;;;7.57;;
32250;SDS011;41295;48.518;9.206;2022-11-15T01:57:11;9.98;;;6.30;;
32250;SDS011;41295;48.518;9.206;2022-11-15T01:59:15;12.63;;;6.50;;
32250;SDS011;41295;48.518;9.206;2022-11-15T02:01:18;14.68;;;6.68;;
32250;SDS011;41295;48.518;9.206;2022-11-15T02:03:21;12.95;;;7.00;;
32250;SDS011;41295;48.518;9.206;2022-11-15T02:05:31;12.43;;;6.25;;
32250;SDS011;41295;48.518;9.206;2022-11-15T02:07:36;15.25;;;6.18;;
32250;SDS011;41295;48.518;9.206;2022-11-15T02:09:39;9.73;;;5.75;;
32250;SDS011;41295;48.518;9.206;2022-11-15T02:11:42;10.50;;;6.45;;
32250;SDS011;41295;48.518;9.206;2022-11-15T02:13:46;13.73;;;6.13;;
32250;SDS011;41295;48.518;9.206;2022-11-15T02:15:50;11.48;;;6.80;;
32250;SDS011;41295;48.518;9.206;2022-11-15T02:18:08;12.75;;;6.22;;
32250;SDS011;41295;48.518;9.206;2022-11-15T02:25:19;8.50;;;5.85;;
32250;SDS011;41295;48.518;9.206;2022-11-15T02:27:47;11.23;;;6.25;;
32250;SDS011;41295;48.518;9.206;2022-11-15T02:30:04;11.98;;;6.40;;
32250;SDS011;41295;48.518;9.206;2022-11-15T02:32:22;12.60;;;7.45;;
32250;SDS011;41295;48.518;9.206;2022-11-15T02:34:32;12.45;;;7.22;;
32250;SDS011;41295;48.518;9.206;2022-11-15T02:36:42;9.80;;;6.18;;
32250;SDS011;41295;48.518;9.206;2022-11-15T02:38:52;9.60;;;5.82;;
32250;SDS011;41295;48.518;9.206;2022-11-15T02:41:01;13.73;;;6.45;;
32250;SDS011;41295;48.518;9.206;2022-11-15T02:43:07;12.70;;;6.38;;
32250;SDS011;41295;48.518;9.206;2022-11-15T02:45:34;11.77;;;7.30;;
32250;SDS011;41295;48.518;9.206;2022-11-15T02:47:42;11.13;;;6.20;;
32250;SDS011;41295;48.518;9.206;2022-11-15T02:49:47;12.48;;;5.95;;
32250;SDS011;41295;48.518;9.206;2022-11-15T02:51:53;10.48;;;6.57;;
32250;SDS011;41295;48.518;9.206;2022-11-15T02:53:57;9.50;;;6.20;;
32250;SDS011;41295;48.518;9.206;2022-11-15T02:56:00;11.23;;;6.30;;
32250;SDS011;41295;48.518;9.206;2022-11-15T02:58:06;12.50;;;7.00;;
32250;SDS011;41295;48.518;9.206;2022-11-15T03:00:22;10.20;;;5.95;;
32250;SDS011;41295;48.518;9.206;2022-11-15T03:02:30;8.60;;;5.78;;
32250;SDS011;41295;48.518;9.206;2022-11-15T03:04:43;14.02;;;6.72;;
32250;SDS011;41295;48.518;9.206;2022-11-15T03:06:48;13.45;;;6.78;;
32250;SDS011;41295;48.518;9.206;2022-11-15T03:08:57;13.85;;;6.63;;
32250;SDS011;41295;48.518;9.206;2022-11-15T03:11:11;10.40;;;6.07;;
32250;SDS011;41295;48.518;9.206;2022-11-15T03:13:18;8.52;;;5.57;;
32250;SDS011;41295;48.518;9.206;2022-11-15T03:15:27;10.80;;;6.55;;
32250;SDS011;41295;48.518;9.206;2022-11-15T03:17:35;13.07;;;6.70;;
32250;SDS011;41295;48.518;9.206;2022-11-15T03:19:43;12.95;;;6.50;;
32250;SDS011;41295;48.518;9.206;2022-11-15T03:21:47;13.13;;;7.05;;
32250;SDS011;41295;48.518;9.206;2022-11-15T03:23:52;12.27;;;6.90;;
32250;SDS011;41295;48.518;9.206;2022-11-15T03:25:56;12.80;;;6.72;;
32250;SDS011;41295;48.518;9.206;2022-11-15T03:28:02;11.43;;;7.10;;
32250;SDS011;41295;48.518;9.206;2022-11-15T03:30:07;14.90;;;6.85;;
32250;SDS011;41295;48.518;9.206;2022-11-15T03:32:12;11.60;;;7.43;;
32250;SDS011;41295;48.518;9.206;2022-11-15T03:34:22;11.25;;;6.28;;
32250;SDS011;41295;48.518;9.206;2022-11-15T03:36:29;11.07;;;7.10;;
32250;SDS011;41295;48.518;9.206;2022-11-15T03:38:34;10.30;;;6.88;;
32250;SDS011;41295;48.518;9.206;2022-11-15T03:40:38;13.48;;;6.63;;
32250;SDS011;41295;48.518;9.206;2022-11-15T03:42:44;11.00;;;6.10;;
32250;SDS011;41295;48.518;9.206;2022-11-15T03:44:51;9.93;;;6.20;;
32250;SDS011;41295;48.518;9.206;2022-11-15T03:47:02;10.88;;;6.38;;
32250;SDS011;41295;48.518;9.206;2022-11-15T03:49:13;16.20;;;7.78;;
32250;SDS011;41295;48.518;9.206;2022-11-15T03:51:21;12.18;;;7.30;;
32250;SDS011;41295;48.518;9.206;2022-11-15T03:53:24;10.45;;;6.93;;
32250;SDS011;41295;48.518;9.206;2022-11-15T03:55:27;15.77;;;8.05;;
32250;SDS011;41295;48.518;9.206;2022-11-15T03:57:29;14.30;;;8.18;;
32250;SDS011;41295;48.518;9.206;2022-11-15T03:59:32;14.85;;;7.82;;
32250;SDS011;41295;48.518;9.206;2022-11-15T04:01:34;13.30;;;7.97;;
32250;SDS011;41295;48.518;9.206;2022-11-15T04:03:37;13.52;;;7.38;;
32250;SDS011;41295;48.518;9.206;2022-11-15T04:05:40;11.63;;;7.65;;
32250;SDS011;41295;48.518;9.206;2022-11-15T04:07:44;12.20;;;7.20;;
32250;SDS011;41295;48.518;9.206;2022-11-15T04:09:47;14.63;;;7.70;;
32250;SDS011;41295;48.518;9.206;2022-11-15T04:12:05;15.20;;;6.88;;
32250;SDS011;41295;48.518;9.206;2022-11-15T04:14:07;9.20;;;6.50;;
32250;SDS011;41295;48.518;9.206;2022-11-15T04:16:10;15.20;;;6.40;;
32250;SDS011;41295;48.518;9.206;2022-11-15T04:18:13;11.07;;;6.32;;
32250;SDS011;41295;48.518;9.206;2022-11-15T04:20:18;14.80;;;7.47;;
32250;SDS011;41295;48.518;9.206;2022-11-15T04:22:40;19.70;;;9.23;;
32250;SDS011;41295;48.518;9.206;2022-11-15T04:25:01;19.27;;;8.70;;
32250;SDS011;41295;48.518;9.206;2022-11-15T04:27:04;20.05;;;8.45;;
32250;SDS011;41295;48.518;9.206;2022-11-15T04:29:07;17.13;;;8.98;;
32250;SDS011;41295;48.518;9.206;2022-11-15T04:31:27;15.68;;;7.82;;
32250;SDS011;41295;48.518;9.206;2022-11-15T04:33:32;16.85;;;6.57;;
32250;SDS011;41295;48.518;9.206;2022-11-15T04:35:35;10.30;;;5.90;;
32250;SDS011;41295;48.518;9.206;2022-11-15T04:37:38;9.38;;;6.15;;
32250;SDS011;41295;48.518;9.206;2022-11-15T04:41:43;12.40;;;7.03;;
32250;SDS011;41295;48.518;9.206;2022-11-15T04:43:46;12.55;;;6.60;;
32250;SDS011;41295;48.518;9.206;2022-11-15T04:45:49;10.30;;;6.78;;
32250;SDS011;41295;48.518;9.206;2022-11-15T04:47:51;17.52;;;7.47;;
32250;SDS011;41295;48.518;9.206;2022-11-15T04:49:54;9.70;;;6.43;;
32250;SDS011;41295;48.518;9.206;2022-11-15T04:51:56;13.32;;;7.30;;
32250;SDS011;41295;48.518;9.206;2022-11-15T04:53:59;12.68;;;6.57;;
32250;SDS011;41295;48.518;9.206;2022-11-15T04:56:02;11.25;;;6.25;;
32250;SDS011;41295;48.518;9.206;2022-11-15T04:58:06;12.00;;;6.53;;
32250;SDS011;41295;48.518;9.206;2022-11-15T05:00:12;11.10;;;6.90;;
32250;SDS011;41295;48.518;9.206;2022-11-15T05:02:19;11.55;;;6.32;;
32250;SDS011;41295;48.518;9.206;2022-11-15T05:04:21;15.95;;;6.63;;
32250;SDS011;41295;48.518;9.206;2022-11-15T05:06:23;9.43;;;6.03;;
32250;SDS011;41295;48.518;9.206;2022-11-15T05:08:28;10.68;;;6.47;;
32250;SDS011;41295;48.518;9.206;2022-11-15T05:10:31;10.35;;;6.15;;
32250;SDS011;41295;48.518;9.206;2022-11-15T05:12:33;13.43;;;6.95;;
32250;SDS011;41295;48.518;9.206;2022-11-15T05:14:37;12.88;;;6.57;;
32250;SDS011;41295;48.518;9.206;2022-11-15T05:16:40;10.25;;;6.30;;
32250;SDS011;41295;48.518;9.206;2022-11-15T05:18:43;10.55;;;6.28;;
32250;SDS011;41295;48.518;9.206;2022-11-15T05:20:45;17.35;;;6.53;;
32250;SDS011;41295;48.518;9.206;2022-11-15T05:22:48;14.43;;;6.63;;
32250;SDS011;41295;48.518;9.206;2022-11-15T05:24:51;12.00;;;7.22;;
32250;SDS011;41295;48.518;9.206;2022-11-15T05:26:53;12.18;;;6.50;;
32250;SDS011;41295;48.518;9.206;2022-11-15T05:28:57;10.65;;;6.90;;
32250;SDS011;41295;48.518;9.206;2022-11-15T05:31:02;10.43;;;6.30;;
32250;SDS011;41295;48.518;9.206;2022-11-15T05:33:07;14.68;;;7.03;;
32250;SDS011;41295;48.518;9.206;2022-11-15T05:35:11;11.88;;;6.95;;
32250;SDS011;41295;48.518;9.206;2022-11-15T05:37:17;13.45;;;7.07;;
32250;SDS011;41295;48.518;9.206;2022-11-15T05:39:20;13.57;;;7.28;;
32250;SDS011;41295;48.518;9.206;2022-11-15T05:41:25;14.85;;;8.20;;
32250;SDS011;41295;48.518;9.206;2022-11-15T05:43:33;18.88;;;7.63;;
32250;SDS011;41295;48.518;9.206;2022-11-15T05:45:40;13.30;;;7.50;;
32250;SDS011;41295;48.518;9.206;2022-11-15T05:47:44;13.60;;;7.10;;
32250;SDS011;41295;48.518;9.206;2022-11-15T05:49:48;14.18;;;7.75;;
32250;SDS011;41295;48.518;9.206;2022-11-15T05:51:53;12.10;;;6.68;;
32250;SDS011;41295;48.518;9.206;2022-11-15T05:53:56;12.65;;;7.97;;
32250;SDS011;41295;48.518;9.206;2022-11-15T05:56:00;14.40;;;7.68;;
32250;SDS011;41295;48.518;9.206;2022-11-15T05:58:03;13.75;;;7.55;;
32250;SDS011;41295;48.518;9.206;2022-11-15T06:00:06;11.07;;;7.30;;
32250;SDS011;41295;48.518;9.206;2022-11-15T06:02:10;16.95;;;8.15;;
32250;SDS011;41295;48.518;9.206;2022-11-15T06:04:15;12.02;;;7.78;;
32250;SDS011;41295;48.518;9.206;2022-11-15T06:06:17;11.98;;;7.72;;
32250;SDS011;41295;48.518;9.206;2022-11-15T06:08:20;17.52;;;7.88;;
32250;SDS011;41295;48.518;9.206;2022-11-15T06:10:23;15.05;;;7.88;;
32250;SDS011;41295;48.518;9.206;2022-11-15T06:12:25;13.50;;;8.07;;
32250;SDS011;41295;48.518;9.206;2022-11-15T06:14:28;13.82;;;8.15;;
32250;SDS011;41295;48.518;9.206;2022-11-15T06:16:31;15.25;;;8.40;;
32250;SDS011;41295;48.518;9.206;2022-11-15T06:18:34;13.65;;;7.75;;
32250;SDS011;41295;48.518;9.206;2022-11-15T06:20:39;19.50;;;8.23;;
32250;SDS011;41295;48.518;9.206;2022-11-15T06:22:41;16.80;;;8.23;;
32250;SDS011;41295;48.518;9.206;2022-11-15T06:24:44;13.18;;;8.32;;
32250;SDS011;41295;48.518;9.206;2022-11-15T06:26:47;15.85;;;8.55;;
32250;SDS011;41295;48.518;9.206;2022-11-15T06:28:50;13.45;;;7.88;;
32250;SDS011;41295;48.518;9.206;2022-11-15T06:30:53;17.63;;;7.55;;
32250;SDS011;41295;48.518;9.206;2022-11-15T06:32:59;11.85;;;7.28;;
32250;SDS011;41295;48.518;9.206;2022-11-15T06:35:03;11.85;;;7.20;;
32250;SDS011;41295;48.518;9.206;2022-11-15T06:37:08;14.63;;;7.43;;
32250;SDS011;41295;48.518;9.206;2022-11-15T06:39:10;16.55;;;9.15;;
32250;SDS011;41295;48.518;9.206;2022-11-15T06:41:14;17.23;;;9.38;;
32250;SDS011;41295;48.518;9.206;2022-11-15T06:43:18;14.30;;;8.63;;
32250;SDS011;41295;48.518;9.206;2022-11-15T06:45:20;11.75;;;8.38;;
32250;SDS011;41295;48.518;9.206;2022-11-15T06:47:23;13.88;;;9.80;;
32250;SDS011;41295;48.518;9.206;2022-11-15T06:49:25;16.38;;;9.05;;
32250;SDS011;41295;48.518;9.206;2022-11-15T06:51:30;12.98;;;8.23;;
32250;SDS011;41295;48.518;9.206;2022-11-15T06:53:34;12.57;;;8.27;;
32250;SDS011;41295;48.518;9.206;2022-11-15T06:55:37;12.98;;;8.02;;
32250;SDS011;41295;48.518;9.206;2022-11-15T06:57:45;13.57;;;7.82;;
32250;SDS011;41295;48.518;9.206;2022-11-15T06:59:48;10.77;;;7.53;;
32250;SDS011;41295;48.518;9.206;2022-11-15T07:01:51;16.98;;;8.10;;
32250;SDS011;41295;48.518;9.206;2022-11-15T07:03:54;12.38;;;8.20;;
32250;SDS011;41295;48.518;9.206;2022-11-15T07:05:57;13.25;;;7.90;;
32250;SDS011;41295;48.518;9.206;2022-11-15T07:08:07;19.48;;;9.52;;
32250;SDS011;41295;48.518;9.206;2022-11-15T07:10:12;23.40;;;10.93;;
32250;SDS011;41295;48.518;9.206;2022-11-15T07:12:14;17.27;;;9.82;;
32250;SDS011;41295;48.518;9.206;2022-11-15T07:14:17;15.38;;;8.80;;
32250;SDS011;41295;48.518;9.206;2022-11-15T07:16:19;16.15;;;8.63;;
32250;SDS011;41295;48.518;9.206;2022-11-15T07:18:22;16.17;;;8.30;;
32250;SDS011;41295;48.518;9.206;2022-11-15T07:20:25;12.85;;;7.95;;
32250;SDS011;41295;48.518;9.206;2022-11-15T07:22:27;15.18;;;8.93;;
32250;SDS011;41295;48.518;9.206;2022-11-15T07:24:30;16.73;;;8.20;;
32250;SDS011;41295;48.518;9.206;2022-11-15T07:26:34;18.17;;;8.50;;
32250;SDS011;41295;48.518;9.206;2022-11-15T07:28:37;14.13;;;8.00;;
32250;SDS011;41295;48.518;9.206;2022-11-15T07:30:39;13.40;;;8.68;;
32250;SDS011;41295;48.518;9.206;2022-11-15T07:32:45;17.02;;;8.70;;
32250;SDS011;41295;48.518;9.206;2022-11-15T07:34:48;14.35;;;8.25;;
32250;SDS011;41295;48.518;9.206;2022-11-15T07:36:51;13.20;;;8.90;;
32250;SDS011;41295;48.518;9.206;2022-11-15T07:38:53;15.32;;;8.15;;
32250;SDS011;41295;48.518;9.206;2022-11-15T07:40:56;13.05;;;9.02;;
32250;SDS011;41295;48.518;9.206;2022-11-15T07:43:02;15.40;;;9.45;;
32250;SDS011;41295;48.518;9.206;2022-11-15T07:45:06;16.92;;;10.45;;
32250;SDS011;41295;48.518;9.206;2022-11-15T07:47:09;19.38;;;10.13;;
32250;SDS011;41295;48.518;9.206;2022-11-15T07:49:11;21.60;;;10.57;;
32250;SDS011;41295;48.518;9.206;2022-11-15T07:51:14;18.95;;;9.30;;
32250;SDS011;41295;48.518;9.206;2022-11-15T07:53:21;14.60;;;8.50;;
32250;SDS011;41295;48.518;9.206;2022-11-15T07:55:23;18.98;;;10.13;;
32250;SDS011;41295;48.518;9.206;2022-11-15T07:57:28;13.32;;;8.63;;
32250;SDS011;41295;48.518;9.206;2022-11-15T07:59:33;14.40;;;8.05;;
32250;SDS011;41295;48.518;9.206;2022-11-15T08:01:35;16.50;;;8.07;;
32250;SDS011;41295;48.518;9.206;2022-11-15T08:03:38;12.50;;;7.05;;
32250;SDS011;41295;48.518;9.206;2022-11-15T08:05:41;11.93;;;7.30;;
32250;SDS011;41295;48.518;9.206;2022-11-15T08:07:44;10.95;;;7.47;;
32250;SDS011;41295;48.518;9.206;2022-11-15T08:09:47;15.43;;;7.47;;
32250;SDS011;41295;48.518;9.206;2022-11-15T08:11:50;12.13;;;7.57;;
32250;SDS011;41295;48.518;9.206;2022-11-15T08:13:52;12.52;;;7.93;;
32250;SDS011;41295;48.518;9.206;2022-11-15T08:15:58;11.63;;;7.50;;
32250;SDS011;41295;48.518;9.206;2022-11-15T08:18:02;16.67;;;7.78;;
32250;SDS011;41295;48.518;9.206;2022-11-15T08:20:06;11.10;;;7.45;;
32250;SDS011;41295;48.518;9.206;2022-11-15T08:22:09;10.80;;;7.55;;
32250;SDS011;41295;48.518;9.206;2022-11-15T08:24:12;14.30;;;7.65;;
32250;SDS011;41295;48.518;9.206;2022-11-15T08:26:15;11.80;;;7.00;;
32250;SDS011;41295;48.518;9.206;2022-11-15T08:28:18;13.95;;;7.82;;
32250;SDS011;41295;48.518;9.206;2022-11-15T08:30:21;11.18;;;7.50;;
32250;SDS011;41295;48.518;9.206;2022-11-15T08:32:25;18.73;;;7.78;;
32250;SDS011;41295;48.518;9.206;2022-11-15T08:34:28;11.35;;;7.13;;
32250;SDS011;41295;48.518;9.206;2022-11-15T08:36:30;14.52;;;8.88;;
32250;SDS011;41295;48.518;9.206;2022-11-15T08:38:45;13.98;;;7.45;;
32250;SDS011;41295;48.518;9.206;2022-11-15T08:40:48;15.02;;;7.80;;
32250;SDS011;41295;48.518;9.206;2022-11-15T08:42:52;16.50;;;8.60;;
32250;SDS011;41295;48.518;9.206;2022-11-15T08:44:55;12.85;;;7.38;;
32250;SDS011;41295;48.518;9.206;2022-11-15T08:46:58;12.07;;;7.45;;
32250;SDS011;41295;48.518;9.206;2022-11-15T08:49:02;14.88;;;7.60;;
32250;SDS011;41295;48.518;9.206;2022-11-15T08:51:04;18.80;;;7.43;;
32250;SDS011;41295;48.518;9.206;2022-11-15T08:53:07;16.23;;;7.75;;
32250;SDS011;41295;48.518;9.206;2022-11-15T08:55:10;10.10;;;6.60;;
32250;SDS011;41295;48.518;9.206;2022-11-15T08:57:13;13.25;;;6.10;;
32250;SDS011;41295;48.518;9.206;2022-11-15T08:59:15;15.57;;;7.05;;
32250;SDS011;41295;48.518;9.206;2022-11-15T09:01:19;13.73;;;7.43;;
32250;SDS011;41295;48.518;9.206;2022-11-15T09:03:22;15.38;;;8.13;;
32250;SDS011;41295;48.518;9.206;2022-11-15T09:05:26;13.35;;;6.63;;
32250;SDS011;41295;48.518;9.206;2022-11-15T09:07:29;13.15;;;7.63;;
32250;SDS011;41295;48.518;9.206;2022-11-15T09:09:33;11.07;;;7.40;;
32250;SDS011;41295;48.518;9.206;2022-11-15T09:11:35;13.15;;;7.45;;
32250;SDS011;41295;48.518;9.206;2022-11-15T09:13:38;13.15;;;7.30;;
32250;SDS011;41295;48.518;9.206;2022-11-15T09:15:41;14.30;;;7.20;;
32250;SDS011;41295;48.518;9.206;2022-11-15T09:17:44;14.88;;;8.35;;
32250;SDS011;41295;48.518;9.206;2022-11-15T09:19:46;14.27;;;8.55;;
32250;SDS011;41295;48.518;9.206;2022-11-15T09:21:50;14.48;;;9.20;;
32250;SDS011;41295;48.518;9.206;2022-11-15T09:23:53;15.77;;;9.80;;
32250;SDS011;41295;48.518;9.206;2022-11-15T09:25:59;17.58;;;9.88;;
32250;SDS011;41295;48.518;9.206;2022-11-15T09:28:05;14.27;;;8.80;;
32250;SDS011;41295;48.518;9.206;2022-11-15T09:30:08;18.33;;;9.55;;
32250;SDS011;41295;48.518;9.206;2022-11-15T09:32:11;18.10;;;10.77;;
32250;SDS011;41295;48.518;9.206;2022-11-15T09:34:14;21.73;;;11.05;;
32250;SDS011;41295;48.518;9.206;2022-11-15T09:36:17;14.70;;;9.57;;
32250;SDS011;41295;48.518;9.206;2022-11-15T09:38:21;18.63;;;9.35;;
32250;SDS011;41295;48.518;9.206;2022-11-15T09:40:23;16.08;;;9.15;;
32250;SDS011;41295;48.518;9.206;2022-11-15T09:42:31;17.98;;;9.98;;
32250;SDS011;41295;48.518;9.206;2022-11-15T09:44:51;19.70;;;10.07;;
32250;SDS011;41295;48.518;9.206;2022-11-15T09:47:10;18.83;;;11.35;;
32250;SDS011;41295;48.518;9.206;2022-11-15T09:49:33;22.55;;;11.18;;
32250;SDS011;41295;48.518;9.206;2022-11-15T09:51:36;14.80;;;8.80;;
32250;SDS011;41295;48.518;9.206;2022-11-15T09:53:51;16.42;;;9.02;;
32250;SDS011;41295;48.518;9.206;2022-11-15T09:56:20;16.95;;;8.80;;
32250;SDS011;41295;48.518;9.206;2022-11-15T09:58:25;17.77;;;9.73;;
32250;SDS011;41295;48.518;9.206;2022-11-15T10:00:33;15.07;;;7.75;;
32250;SDS011;41295;48.518;9.206;2022-11-15T10:05:18;15.77;;;9.43;;
32250;SDS011;41295;48.518;9.206;2022-11-15T10:07:23;18.02;;;7.50;;
32250;SDS011;41295;48.518;9.206;2022-11-15T10:09:32;14.27;;;7.10;;
32250;SDS011;41295;48.518;9.206;2022-11-15T10:11:39;16.75;;;7.88;;
32250;SDS011;41295;48.518;9.206;2022-11-15T10:13:45;13.13;;;7.80;;
32250;SDS011;41295;48.518;9.206;2022-11-15T10:15:50;12.07;;;7.35;;
32250;SDS011;41295;48.518;9.206;2022-11-15T10:18:06;12.35;;;7.15;;
32250;SDS011;41295;48.518;9.206;2022-11-15T10:20:15;12.20;;;6.82;;
32250;SDS011;41295;48.518;9.206;2022-11-15T10:22:25;13.02;;;6.90;;
32250;SDS011;41295;48.518;9.206;2022-11-15T10:24:33;15.55;;;7.38;;
32250;SDS011;41295;48.518;9.206;2022-11-15T10:26:39;14.45;;;6.45;;
32250;SDS011;41295;48.518;9.206;2022-11-15T10:28:48;11.90;;;7.25;;
32250;SDS011;41295;48.518;9.206;2022-11-15T10:30:51;12.57;;;6.47;;
32250;SDS011;41295;48.518;9.206;2022-11-15T10:32:56;11.18;;;6.55;;
32250;SDS011;41295;48.518;9.206;2022-11-15T10:34:58;11.07;;;6.60;;
32250;SDS011;41295;48.518;9.206;2022-11-15T10:37:01;13.73;;;6.47;;
32250;SDS011;41295;48.518;9.206;2022-11-15T10:39:04;14.73;;;6.07;;
32250;SDS011;41295;48.518;9.206;2022-11-15T10:41:08;13.82;;;6.47;;
32250;SDS011;41295;48.518;9.206;2022-11-15T10:43:15;12.07;;;6.13;;
32250;SDS011;41295;48.518;9.206;2022-11-15T10:45:24;12.57;;;6.30;;
32250;SDS011;41295;48.518;9.206;2022-11-15T10:47:31;11.93;;;6.50;;
32250;SDS011;41295;48.518;9.206;2022-11-15T10:49:40;14.80;;;6.13;;
32250;SDS011;41295;48.518;9.206;2022-11-15T10:51:56;15.10;;;6.07;;
32250;SDS011;41295;48.518;9.206;2022-11-15T10:54:00;12.35;;;6.85;;
32250;SDS011;41295;48.518;9.206;2022-11-15T10:56:08;12.15;;;6.10;;
32250;SDS011;41295;48.518;9.206;2022-11-15T10:58:20;11.05;;;5.60;;
32250;SDS011;41295;48.518;9.206;2022-11-15T11:00:30;10.40;;;5.30;;
32250;SDS011;41295;48.518;9.206;2022-11-15T11:02:36;8.55;;;5.55;;
32250;SDS011;41295;48.518;9.206;2022-11-15T11:04:48;10.75;;;5.15;;
32250;SDS011;41295;48.518;9.206;2022-11-15T11:06:52;11.63;;;5.90;;
32250;SDS011;41295;48.518;9.206;2022-11-15T11:08:57;11.98;;;5.15;;
32250;SDS011;41295;48.518;9.206;2022-11-15T11:11:02;9.23;;;5.53;;
32250;SDS011;41295;48.518;9.206;2022-11-15T11:13:13;16.50;;;6.32;;
32250;SDS011;41295;48.518;9.206;2022-11-15T11:15:17;13.25;;;6.03;;
32250;SDS011;41295;48.518;9.206;2022-11-15T11:17:22;10.63;;;5.72;;
32250;SDS011;41295;48.518;9.206;2022-11-15T11:19:46;13.50;;;5.78;;
32250;SDS011;41295;48.518;9.206;2022-11-15T11:22:01;11.07;;;5.18;;
32250;SDS011;41295;48.518;9.206;2022-11-15T11:24:13;12.07;;;5.18;;
32250;SDS011;41295;48.518;9.206;2022-11-15T11:26:29;8.88;;;5.53;;
32250;SDS011;41295;48.518;9.206;2022-11-15T11:28:42;10.40;;;5.00;;
32250;SDS011;41295;48.518;9.206;2022-11-15T11:30:53;12.45;;;5.10;;
32250;SDS011;41295;48.518;9.206;2022-11-15T11:33:10;11.93;;;5.63;;
32250;SDS011;41295;48.518;9.206;2022-11-15T11:35:19;8.60;;;5.30;;
32250;SDS011;41295;48.518;9.206;2022-11-15T11:37:30;9.30;;;5.32;;
32250;SDS011;41295;48.518;9.206;2022-11-15T11:39:40;12.70;;;5.53;;
32250;SDS011;41295;48.518;9.206;2022-11-15T11:41:55;8.98;;;4.70;;
32250;SDS011;41295;48.518;9.206;2022-11-15T11:46:23;8.07;;;4.88;;
32250;SDS011;41295;48.518;9.206;2022-11-15T11:48:48;11.98;;;5.35;;
32250;SDS011;41295;48.518;9.206;2022-11-15T11:51:03;8.15;;;4.65;;
32250;SDS011;41295;48.518;9.206;2022-11-15T11:53:11;10.18;;;4.88;;
32250;SDS011;41295;48.518;9.206;2022-11-15T11:55:17;7.63;;;4.07;;
32250;SDS011;41295;48.518;9.206;2022-11-15T11:57:26;11.77;;;4.40;;
32250;SDS011;41295;48.518;9.206;2022-11-15T11:59:37;14.13;;;4.95;;
32250;SDS011;41295;48.518;9.206;2022-11-15T12:01:45;9.17;;;4.33;;
32250;SDS011;41295;48.518;9.206;2022-11-15T12:03:50;6.22;;;3.55;;
32250;SDS011;41295;48.518;9.206;2022-11-15T12:05:59;8.52;;;4.70;;
32250;SDS011;41295;48.518;9.206;2022-11-15T12:08:09;8.07;;;4.53;;
32250;SDS011;41295;48.518;9.206;2022-11-15T12:10:28;15.85;;;5.32;;
32250;SDS011;41295;48.518;9.206;2022-11-15T12:12:36;8.27;;;4.50;;
32250;SDS011;41295;48.518;9.206;2022-11-15T12:14:45;13.00;;;5.15;;
32250;SDS011;41295;48.518;9.206;2022-11-15T12:16:50;10.02;;;5.40;;
32250;SDS011;41295;48.518;9.206;2022-11-15T12:18:53;10.65;;;4.80;;
32250;SDS011;41295;48.518;9.206;2022-11-15T12:20:58;10.77;;;4.80;;
32250;SDS011;41295;48.518;9.206;2022-11-15T12:23:06;7.65;;;4.30;;
32250;SDS011;41295;48.518;9.206;2022-11-15T12:25:18;8.13;;;4.75;;
32250;SDS011;41295;48.518;9.206;2022-11-15T12:27:25;7.65;;;4.20;;
32250;SDS011;41295;48.518;9.206;2022-11-15T12:31:41;7.18;;;4.32;;
32250;SDS011;41295;48.518;9.206;2022-11-15T12:33:48;9.52;;;4.75;;
32250;SDS011;41295;48.518;9.206;2022-11-15T12:35:57;13.38;;;4.93;;
32250;SDS011;41295;48.518;9.206;2022-11-15T12:38:02;11.90;;;5.32;;
32250;SDS011;41295;48.518;9.206;2022-11-15T12:40:16;8.93;;;5.05;;
32250;SDS011;41295;48.518;9.206;2022-11-15T12:42:39;9.18;;;4.47;;